sensor_id;sensor_type;location;lat;lon;timestamp;pressure;altitude;pressure_sealevel;temperature;humidity
24620;BME280;12763;55.802;37.404;2023-01-29T00:01:34;99696.78;;;0.04;95.81
24620;BME280;12763;55.802;37.404;2023-01-29T00:03:59;99694.63;;;0.08;95.17
24620;BME280;12763;55.802;37.404;2023-01-29T00:06:25;99696.19;;;0.47;94.04
24620;BME280;12763;55.802;37.404;2023-01-29T00:08:51;99699.56;;;0.22;95.21
24620;BME280;12763;55.802;37.404;2023-01-29T00:11:17;99689.50;;;-0.05;95.45
24620;BME280;12763;55.802;37.404;2023-01-29T00:13:45;99699.47;;;0.14;94.23
24620;BME280;12763;55.802;37.404;2023-01-29T00:16:11;99697.63;;;0.05;92.89
24620;BME280;12763;55.802;37.404;2023-01-29T00:18:38;99694.16;;;0.12;92.50
24620;BME280;12763;55.802;37.404;2023-01-29T00:21:18;99696.44;;;-0.20;92.43
24620;BME280;12763;55.802;37.404;2023-01-29T00:23:44;99684.03;;;-0.23;90.97
24620;BME280;12763;55.802;37.404;2023-01-29T00:26:10;99697.53;;;-0.04;89.62
24620;BME280;12763;55.802;37.404;2023-01-29T00:28:40;99686.00;;;-0.25;89.64
24620;BME280;12763;55.802;37.404;2023-01-29T00:31:08;99687.66;;;0.05;88.48
24620;BME280;12763;55.802;37.404;2023-01-29T00:33:34;99675.13;;;-0.15;87.44
24620;BME280;12763;55.802;37.404;2023-01-29T00:36:08;99677.38;;;-0.01;87.23
24620;BME280;12763;55.802;37.404;2023-01-29T00:38:35;99677.84;;;-0.06;87.25
24620;BME280;12763;55.802;37.404;2023-01-29T00:41:09;99680.97;;;0.27;86.02
24620;BME280;12763;55.802;37.404;2023-01-29T00:43:54;99675.25;;;0.30;84.95
24620;BME280;12763;55.802;37.404;2023-01-29T00:46:38;99657.13;;;-0.07;84.56
24620;BME280;12763;55.802;37.404;2023-01-29T00:49:05;99664.00;;;0.25;84.58
24620;BME280;12763;55.802;37.404;2023-01-29T00:51:31;99665.84;;;0.51;83.25
24620;BME280;12763;55.802;37.404;2023-01-29T00:53:57;99672.44;;;0.49;82.88
24620;BME280;12763;55.802;37.404;2023-01-29T00:56:27;99657.38;;;0.54;82.49
24620;BME280;12763;55.802;37.404;2023-01-29T00:58:54;99654.97;;;0.51;81.85
24620;BME280;12763;55.802;37.404;2023-01-29T01:01:21;99652.19;;;0.61;81.62
24620;BME280;12763;55.802;37.404;2023-01-29T01:04:07;99651.03;;;0.64;81.42
24620;BME280;12763;55.802;37.404;2023-01-29T01:06:40;99657.00;;;0.67;81.46
24620;BME280;12763;55.802;37.404;2023-01-29T01:09:06;99652.81;;;0.28;80.72
24620;BME280;12763;55.802;37.404;2023-01-29T01:11:51;99647.53;;;0.53;79.98
24620;BME280;12763;55.802;37.404;2023-01-29T01:14:18;99649.59;;;0.15;80.82
24620;BME280;12763;55.802;37.404;2023-01-29T01:16:45;99655.53;;;0.55;80.57
24620;BME280;12763;55.802;37.404;2023-01-29T01:19:12;99657.00;;;0.67;80.19
24620;BME280;12763;55.802;37.404;2023-01-29T01:21:38;99660.88;;;0.47;79.82
24620;BME280;12763;55.802;37.404;2023-01-29T01:24:03;99666.91;;;0.41;80.40
24620;BME280;12763;55.802;37.404;2023-01-29T01:26:33;99665.06;;;0.59;80.09
24620;BME280;12763;55.802;37.404;2023-01-29T01:28:59;99663.69;;;0.55;79.86
24620;BME280;12763;55.802;37.404;2023-01-29T01:31:25;99673.53;;;0.56;79.54
24620;BME280;12763;55.802;37.404;2023-01-29T01:33:50;99670.72;;;0.21;80.35
24620;BME280;12763;55.802;37.404;2023-01-29T01:36:18;99658.16;;;0.47;79.70
24620;BME280;12763;55.802;37.404;2023-01-29T01:38:44;99659.34;;;0.62;79.70
24620;BME280;12763;55.802;37.404;2023-01-29T01:41:12;99655.00;;;0.69;79.43
24620;BME280;12763;55.802;37.404;2023-01-29T01:43:58;99642.56;;;0.49;80.00
24620;BME280;12763;55.802;37.404;2023-01-29T01:46:28;99656.44;;;0.64;79.63
24620;BME280;12763;55.802;37.404;2023-01-29T01:48:58;99638.94;;;0.31;80.42
24620;BME280;12763;55.802;37.404;2023-01-29T01:51:26;99633.09;;;0.53;80.74
24620;BME280;12763;55.802;37.404;2023-01-29T01:54:06;99636.28;;;0.48;80.15
24620;BME280;12763;55.802;37.404;2023-01-29T01:56:37;99634.94;;;0.35;81.29
24620;BME280;12763;55.802;37.404;2023-01-29T01:59:09;99627.47;;;0.37;80.54
24620;BME280;12763;55.802;37.404;2023-01-29T02:01:37;99626.50;;;0.38;80.63
24620;BME280;12763;55.802;37.404;2023-01-29T02:04:10;99616.47;;;0.38;81.78
24620;BME280;12763;55.802;37.404;2023-01-29T02:06:57;99616.59;;;0.19;80.56
24620;BME280;12763;55.802;37.404;2023-01-29T02:10:06;99618.63;;;0.35;80.87
24620;BME280;12763;55.802;37.404;2023-01-29T02:12:37;99619.19;;;0.38;80.99
24620;BME280;12763;55.802;37.404;2023-01-29T02:15:03;99610.88;;;0.40;80.65
24620;BME280;12763;55.802;37.404;2023-01-29T02:17:30;99597.88;;;0.61;80.03
24620;BME280;12763;55.802;37.404;2023-01-29T02:28:41;99590.75;;;0.60;80.14
24620;BME280;12763;55.802;37.404;2023-01-29T02:36:44;99578.84;;;0.61;79.50
24620;BME280;12763;55.802;37.404;2023-01-29T02:42:15;99568.78;;;0.53;80.26
24620;BME280;12763;55.802;37.404;2023-01-29T02:53:00;99553.41;;;0.44;80.11
24620;BME280;12763;55.802;37.404;2023-01-29T02:55:47;99547.22;;;0.52;79.70
24620;BME280;12763;55.802;37.404;2023-01-29T02:58:29;99531.78;;;0.70;79.08
24620;BME280;12763;55.802;37.404;2023-01-29T03:01:03;99546.06;;;0.54;79.45
24620;BME280;12763;55.802;37.404;2023-01-29T03:03:42;99551.16;;;0.40;79.46
24620;BME280;12763;55.802;37.404;2023-01-29T03:06:36;99539.91;;;0.35;79.45
24620;BME280;12763;55.802;37.404;2023-01-29T03:09:08;99533.81;;;0.33;80.02
24620;BME280;12763;55.802;37.404;2023-01-29T03:11:39;99537.47;;;0.14;80.63
24620;BME280;12763;55.802;37.404;2023-01-29T03:14:17;99538.19;;;0.16;81.12
24620;BME280;12763;55.802;37.404;2023-01-29T03:21:54;99515.72;;;0.59;79.84
24620;BME280;12763;55.802;37.404;2023-01-29T03:24:41;99507.00;;;0.55;79.39
24620;BME280;12763;55.802;37.404;2023-01-29T03:27:36;99492.53;;;0.47;80.41
24620;BME280;12763;55.802;37.404;2023-01-29T03:30:27;99496.25;;;0.11;81.67
24620;BME280;12763;55.802;37.404;2023-01-29T03:33:30;99484.63;;;0.18;80.96
24620;BME280;12763;55.802;37.404;2023-01-29T03:36:00;99479.81;;;-0.06;82.34
24620;BME280;12763;55.802;37.404;2023-01-29T03:38:30;99474.69;;;0.09;81.93
24620;BME280;12763;55.802;37.404;2023-01-29T03:41:32;99475.16;;;0.40;81.49
24620;BME280;12763;55.802;37.404;2023-01-29T03:44:04;99477.53;;;0.25;81.22
24620;BME280;12763;55.802;37.404;2023-01-29T03:46:40;99470.19;;;0.18;82.22
24620;BME280;12763;55.802;37.404;2023-01-29T03:51:54;99457.38;;;0.45;81.10
24620;BME280;12763;55.802;37.404;2023-01-29T03:54:37;99457.25;;;0.29;81.36
24620;BME280;12763;55.802;37.404;2023-01-29T03:57:30;99452.91;;;0.19;82.06
24620;BME280;12763;55.802;37.404;2023-01-29T04:00:05;99452.50;;;0.31;81.26
24620;BME280;12763;55.802;37.404;2023-01-29T04:03:01;99451.41;;;0.59;80.44
24620;BME280;12763;55.802;37.404;2023-01-29T04:05:38;99445.72;;;0.71;79.61
24620;BME280;12763;55.802;37.404;2023-01-29T04:08:29;99445.59;;;0.54;79.92
24620;BME280;12763;55.802;37.404;2023-01-29T04:11:02;99432.13;;;0.27;80.41
24620;BME280;12763;55.802;37.404;2023-01-29T04:13:32;99434.16;;;0.08;81.81
24620;BME280;12763;55.802;37.404;2023-01-29T04:16:00;99443.44;;;0.05;81.54
24620;BME280;12763;55.802;37.404;2023-01-29T04:18:54;99450.81;;;0.13;80.77
24620;BME280;12763;55.802;37.404;2023-01-29T04:21:26;99438.53;;;0.09;80.91
24620;BME280;12763;55.802;37.404;2023-01-29T04:23:52;99439.78;;;0.32;80.60
24620;BME280;12763;55.802;37.404;2023-01-29T04:26:29;99442.94;;;0.45;79.75
24620;BME280;12763;55.802;37.404;2023-01-29T04:34:26;99436.84;;;0.43;80.37
24620;BME280;12763;55.802;37.404;2023-01-29T04:40:09;99428.81;;;0.59;80.12
24620;BME280;12763;55.802;37.404;2023-01-29T04:43:05;99420.88;;;0.05;81.48
24620;BME280;12763;55.802;37.404;2023-01-29T04:52:06;99428.28;;;0.55;80.68
24620;BME280;12763;55.802;37.404;2023-01-29T04:54:38;99421.94;;;0.47;80.55
24620;BME280;12763;55.802;37.404;2023-01-29T04:57:25;99412.69;;;0.57;80.29
24620;BME280;12763;55.802;37.404;2023-01-29T05:02:43;99410.41;;;0.27;80.57
24620;BME280;12763;55.802;37.404;2023-01-29T05:05:10;99422.19;;;0.36;80.29
24620;BME280;12763;55.802;37.404;2023-01-29T05:07:38;99414.59;;;0.22;81.32
24620;BME280;12763;55.802;37.404;2023-01-29T05:10:08;99411.97;;;0.30;81.22
24620;BME280;12763;55.802;37.404;2023-01-29T05:12:36;99408.50;;;0.45;81.02
24620;BME280;12763;55.802;37.404;2023-01-29T05:15:09;99415.06;;;0.35;81.04
24620;BME280;12763;55.802;37.404;2023-01-29T05:17:37;99410.63;;;0.34;80.91
24620;BME280;12763;55.802;37.404;2023-01-29T05:20:10;99408.88;;;0.25;81.60
24620;BME280;12763;55.802;37.404;2023-01-29T05:22:38;99423.19;;;0.35;81.37
24620;BME280;12763;55.802;37.404;2023-01-29T05:25:22;99420.63;;;0.33;81.79
24620;BME280;12763;55.802;37.404;2023-01-29T05:27:49;99423.94;;;0.45;81.17
24620;BME280;12763;55.802;37.404;2023-01-29T05:30:33;99419.84;;;0.06;82.58
24620;BME280;12763;55.802;37.404;2023-01-29T05:33:00;99413.66;;;0.31;82.12
24620;BME280;12763;55.802;37.404;2023-01-29T05:35:26;99412.50;;;0.16;82.16
24620;BME280;12763;55.802;37.404;2023-01-29T05:37:54;99411.41;;;0.26;81.89
24620;BME280;12763;55.802;37.404;2023-01-29T05:40:21;99412.03;;;0.38;81.70
24620;BME280;12763;55.802;37.404;2023-01-29T05:42:46;99413.59;;;0.23;81.80
24620;BME280;12763;55.802;37.404;2023-01-29T05:45:12;99421.19;;;0.02;83.09
24620;BME280;12763;55.802;37.404;2023-01-29T05:47:38;99412.88;;;0.21;82.82
24620;BME280;12763;55.802;37.404;2023-01-29T05:50:04;99413.38;;;0.16;82.71
24620;BME280;12763;55.802;37.404;2023-01-29T05:52:33;99413.84;;;-0.06;83.49
24620;BME280;12763;55.802;37.404;2023-01-29T05:54:58;99416.25;;;-0.03;83.85
24620;BME280;12763;55.802;37.404;2023-01-29T05:57:24;99417.84;;;-0.10;84.08
24620;BME280;12763;55.802;37.404;2023-01-29T05:59:50;99416.78;;;-0.17;85.11
24620;BME280;12763;55.802;37.404;2023-01-29T06:02:15;99408.94;;;-0.03;84.95
24620;BME280;12763;55.802;37.404;2023-01-29T06:04:41;99420.56;;;0.08;84.18
24620;BME280;12763;55.802;37.404;2023-01-29T06:07:07;99412.38;;;-0.01;84.58
24620;BME280;12763;55.802;37.404;2023-01-29T06:09:33;99407.94;;;0.16;83.91
24620;BME280;12763;55.802;37.404;2023-01-29T06:11:58;99412.03;;;0.38;83.34
24620;BME280;12763;55.802;37.404;2023-01-29T06:14:24;99398.28;;;0.39;82.91
24620;BME280;12763;55.802;37.404;2023-01-29T06:16:50;99386.75;;;0.37;82.95
24620;BME280;12763;55.802;37.404;2023-01-29T06:19:15;99389.69;;;0.44;82.88
24620;BME280;12763;55.802;37.404;2023-01-29T06:21:42;99391.38;;;0.45;82.46
24620;BME280;12763;55.802;37.404;2023-01-29T06:24:08;99392.50;;;0.17;82.90
24620;BME280;12763;55.802;37.404;2023-01-29T06:26:34;99387.91;;;0.35;82.75
24620;BME280;12763;55.802;37.404;2023-01-29T06:29:00;99382.97;;;0.30;82.75
24620;BME280;12763;55.802;37.404;2023-01-29T06:31:25;99382.63;;;0.33;82.56
24620;BME280;12763;55.802;37.404;2023-01-29T06:33:53;99385.63;;;0.48;82.68
24620;BME280;12763;55.802;37.404;2023-01-29T06:36:19;99389.56;;;0.53;82.06
24620;BME280;12763;55.802;37.404;2023-01-29T06:38:45;99392.84;;;0.39;82.03
24620;BME280;12763;55.802;37.404;2023-01-29T06:41:14;99382.19;;;0.20;82.50
24620;BME280;12763;55.802;37.404;2023-01-29T06:43:43;99387.13;;;0.68;81.31
24620;BME280;12763;55.802;37.404;2023-01-29T06:46:10;99368.03;;;0.52;80.96
24620;BME280;12763;55.802;37.404;2023-01-29T06:48:38;99365.03;;;0.63;80.29
24620;BME280;12763;55.802;37.404;2023-01-29T06:51:06;99365.69;;;0.57;80.48
24620;BME280;12763;55.802;37.404;2023-01-29T06:53:33;99357.91;;;0.62;80.29
24620;BME280;12763;55.802;37.404;2023-01-29T06:55:59;99348.34;;;0.84;79.91
24620;BME280;12763;55.802;37.404;2023-01-29T06:58:25;99347.09;;;0.70;78.62
24620;BME280;12763;55.802;37.404;2023-01-29T07:00:51;99343.16;;;0.98;78.34
24620;BME280;12763;55.802;37.404;2023-01-29T07:03:17;99335.91;;;1.07;77.34
24620;BME280;12763;55.802;37.404;2023-01-29T07:05:49;99342.63;;;0.95;77.06
24620;BME280;12763;55.802;37.404;2023-01-29T07:08:15;99340.78;;;0.70;76.37
24620;BME280;12763;55.802;37.404;2023-01-29T07:10:41;99338.41;;;0.67;75.28
24620;BME280;12763;55.802;37.404;2023-01-29T07:13:07;99338.69;;;0.89;75.12
24620;BME280;12763;55.802;37.404;2023-01-29T07:15:32;99333.03;;;1.16;74.30
24620;BME280;12763;55.802;37.404;2023-01-29T07:18:00;99335.03;;;1.06;73.58
24620;BME280;12763;55.802;37.404;2023-01-29T07:20:28;99334.19;;;0.72;73.49
24620;BME280;12763;55.802;37.404;2023-01-29T07:22:56;99327.59;;;1.16;72.38
24620;BME280;12763;55.802;37.404;2023-01-29T07:25:22;99319.69;;;1.31;72.32
24620;BME280;12763;55.802;37.404;2023-01-29T07:27:48;99340.66;;;1.05;71.96
24620;BME280;12763;55.802;37.404;2023-01-29T07:30:15;99332.09;;;1.42;71.59
24620;BME280;12763;55.802;37.404;2023-01-29T07:32:41;99328.38;;;1.43;70.98
24620;BME280;12763;55.802;37.404;2023-01-29T07:35:07;99322.63;;;1.46;70.26
24620;BME280;12763;55.802;37.404;2023-01-29T07:37:33;99330.78;;;1.54;70.38
24620;BME280;12763;55.802;37.404;2023-01-29T07:40:01;99322.44;;;1.55;69.94
24620;BME280;12763;55.802;37.404;2023-01-29T07:42:29;99317.34;;;1.52;69.14
24620;BME280;12763;55.802;37.404;2023-01-29T07:44:55;99317.31;;;1.36;68.33
24620;BME280;12763;55.802;37.404;2023-01-29T07:47:21;99318.25;;;1.11;70.05
24620;BME280;12763;55.802;37.404;2023-01-29T07:49:46;99318.69;;;1.40;69.37
24620;BME280;12763;55.802;37.404;2023-01-29T07:52:12;99307.81;;;0.90;68.53
24620;BME280;12763;55.802;37.404;2023-01-29T07:54:38;99305.94;;;0.91;69.20
24620;BME280;12763;55.802;37.404;2023-01-29T07:57:03;99305.72;;;1.26;69.26
24620;BME280;12763;55.802;37.404;2023-01-29T07:59:30;99311.28;;;1.16;69.47
24620;BME280;12763;55.802;37.404;2023-01-29T08:01:55;99321.94;;;0.94;68.81
24620;BME280;12763;55.802;37.404;2023-01-29T08:04:21;99303.94;;;1.01;68.93
24620;BME280;12763;55.802;37.404;2023-01-29T08:06:47;99294.03;;;0.92;70.13
24620;BME280;12763;55.802;37.404;2023-01-29T08:09:12;99296.97;;;0.98;69.61
24620;BME280;12763;55.802;37.404;2023-01-29T08:11:38;99295.66;;;1.10;69.21
24620;BME280;12763;55.802;37.404;2023-01-29T08:14:04;99295.25;;;0.97;68.93
24620;BME280;12763;55.802;37.404;2023-01-29T08:16:30;99296.28;;;0.96;70.16
24620;BME280;12763;55.802;37.404;2023-01-29T08:18:56;99295.66;;;1.10;69.29
24620;BME280;12763;55.802;37.404;2023-01-29T08:21:21;99291.63;;;1.23;68.92
24620;BME280;12763;55.802;37.404;2023-01-29T08:23:47;99295.47;;;1.04;69.18
24620;BME280;12763;55.802;37.404;2023-01-29T08:26:13;99290.25;;;1.18;69.71
24620;BME280;12763;55.802;37.404;2023-01-29T08:28:39;99299.78;;;1.31;69.56
24620;BME280;12763;55.802;37.404;2023-01-29T08:31:12;99295.75;;;1.35;69.72
24620;BME280;12763;55.802;37.404;2023-01-29T08:33:38;99288.53;;;1.09;69.29
24620;BME280;12763;55.802;37.404;2023-01-29T08:36:04;99295.84;;;1.17;69.57
24620;BME280;12763;55.802;37.404;2023-01-29T08:38:29;99277.50;;;1.19;69.13
24620;BME280;12763;55.802;37.404;2023-01-29T08:40:55;99291.78;;;1.21;68.58
24620;BME280;12763;55.802;37.404;2023-01-29T08:43:21;99289.16;;;1.03;69.52
24620;BME280;12763;55.802;37.404;2023-01-29T08:45:47;99285.53;;;1.29;69.00
24620;BME280;12763;55.802;37.404;2023-01-29T08:48:12;99289.56;;;1.25;69.26
24620;BME280;12763;55.802;37.404;2023-01-29T08:50:38;99292.13;;;1.18;68.82
24620;BME280;12763;55.802;37.404;2023-01-29T08:53:06;99286.34;;;1.21;69.32
24620;BME280;12763;55.802;37.404;2023-01-29T08:55:34;99289.28;;;1.44;68.29
24620;BME280;12763;55.802;37.404;2023-01-29T08:58:02;99285.34;;;1.38;67.86
24620;BME280;12763;55.802;37.404;2023-01-29T09:00:28;99291.59;;;1.14;68.69
24620;BME280;12763;55.802;37.404;2023-01-29T09:02:54;99294.34;;;1.31;68.85
24620;BME280;12763;55.802;37.404;2023-01-29T09:05:20;99286.81;;;1.08;69.07
24620;BME280;12763;55.802;37.404;2023-01-29T09:07:45;99285.84;;;1.26;68.75
24620;BME280;12763;55.802;37.404;2023-01-29T09:10:11;99282.44;;;1.15;69.19
24620;BME280;12763;55.802;37.404;2023-01-29T09:12:38;99281.19;;;1.60;68.25
24620;BME280;12763;55.802;37.404;2023-01-29T09:15:04;99292.25;;;1.16;69.55
24620;BME280;12763;55.802;37.404;2023-01-29T09:17:30;99285.53;;;1.29;69.59
24620;BME280;12763;55.802;37.404;2023-01-29T09:19:55;99275.66;;;1.28;69.38
24620;BME280;12763;55.802;37.404;2023-01-29T09:22:21;99276.84;;;1.25;69.80
24620;BME280;12763;55.802;37.404;2023-01-29T09:24:47;99263.13;;;1.43;68.87
24620;BME280;12763;55.802;37.404;2023-01-29T09:27:13;99260.53;;;1.25;69.75
24620;BME280;12763;55.802;37.404;2023-01-29T09:29:38;99263.34;;;1.65;68.86
24620;BME280;12763;55.802;37.404;2023-01-29T09:32:04;99254.66;;;1.70;68.61
24620;BME280;12763;55.802;37.404;2023-01-29T09:34:34;99248.00;;;1.40;69.44
24620;BME280;12763;55.802;37.404;2023-01-29T09:37:00;99256.59;;;1.11;69.59
24620;BME280;12763;55.802;37.404;2023-01-29T09:39:25;99257.16;;;1.39;70.07
24620;BME280;12763;55.802;37.404;2023-01-29T09:41:59;99263.81;;;1.53;69.32
24620;BME280;12763;55.802;37.404;2023-01-29T09:47:13;99252.94;;;1.77;68.60
24620;BME280;12763;55.802;37.404;2023-01-29T09:49:54;99252.59;;;1.88;68.32
24620;BME280;12763;55.802;37.404;2023-01-29T09:52:29;99250.06;;;1.78;68.61
24620;BME280;12763;55.802;37.404;2023-01-29T09:57:43;99233.88;;;2.25;67.21
24620;BME280;12763;55.802;37.404;2023-01-29T10:00:37;99230.00;;;1.96;67.87
24620;BME280;12763;55.802;37.404;2023-01-29T10:03:27;99236.94;;;1.34;68.85
24620;BME280;12763;55.802;37.404;2023-01-29T10:06:03;99215.19;;;1.34;69.23
24620;BME280;12763;55.802;37.404;2023-01-29T10:08:53;99216.06;;;1.66;68.49
24620;BME280;12763;55.802;37.404;2023-01-29T10:17:04;99190.72;;;1.82;69.19
24620;BME280;12763;55.802;37.404;2023-01-29T10:19:49;99177.56;;;2.02;68.71
24620;BME280;12763;55.802;37.404;2023-01-29T10:25:12;99169.25;;;2.03;68.50
24620;BME280;12763;55.802;37.404;2023-01-29T10:27:41;99173.25;;;2.40;67.36
24620;BME280;12763;55.802;37.404;2023-01-29T10:30:32;99151.44;;;2.40;66.75
24620;BME280;12763;55.802;37.404;2023-01-29T10:33:02;99141.38;;;1.85;67.85
24620;BME280;12763;55.802;37.404;2023-01-29T10:35:32;99134.06;;;1.94;68.55
24620;BME280;12763;55.802;37.404;2023-01-29T10:38:25;99114.88;;;2.34;67.11
24620;BME280;12763;55.802;37.404;2023-01-29T10:41:22;99134.41;;;2.37;67.04
24620;BME280;12763;55.802;37.404;2023-01-29T10:51:42;99134.13;;;2.24;66.85
24620;BME280;12763;55.802;37.404;2023-01-29T11:00:19;99113.81;;;2.04;66.72
24620;BME280;12763;55.802;37.404;2023-01-29T11:02:48;99107.25;;;2.21;67.56
24620;BME280;12763;55.802;37.404;2023-01-29T11:05:26;99116.00;;;2.09;67.46
24620;BME280;12763;55.802;37.404;2023-01-29T11:08:11;99110.69;;;2.23;67.40
24620;BME280;12763;55.802;37.404;2023-01-29T11:10:51;99108.44;;;2.27;67.27
24620;BME280;12763;55.802;37.404;2023-01-29T11:13:21;99104.28;;;2.00;68.11
24620;BME280;12763;55.802;37.404;2023-01-29T11:15:51;99111.44;;;2.01;68.42
24620;BME280;12763;55.802;37.404;2023-01-29T11:18:17;99107.81;;;2.17;67.97
24620;BME280;12763;55.802;37.404;2023-01-29T11:20:59;99107.22;;;2.29;67.41
24620;BME280;12763;55.802;37.404;2023-01-29T11:23:31;99101.00;;;2.21;67.48
24620;BME280;12763;55.802;37.404;2023-01-29T11:25:58;99100.28;;;1.72;69.07
24620;BME280;12763;55.802;37.404;2023-01-29T11:28:57;99098.50;;;2.03;68.78
24620;BME280;12763;55.802;37.404;2023-01-29T11:31:28;99100.78;;;2.30;68.42
24620;BME280;12763;55.802;37.404;2023-01-29T11:34:17;99090.06;;;1.82;69.34
24620;BME280;12763;55.802;37.404;2023-01-29T11:37:01;99086.78;;;1.95;68.84
24620;BME280;12763;55.802;37.404;2023-01-29T11:39:29;99087.09;;;2.00;68.50
24620;BME280;12763;55.802;37.404;2023-01-29T11:41:56;99091.00;;;2.05;68.59
24620;BME280;12763;55.802;37.404;2023-01-29T11:44:41;99089.31;;;2.04;68.82
24620;BME280;12763;55.802;37.404;2023-01-29T11:49:43;99093.84;;;1.65;70.26
24620;BME280;12763;55.802;37.404;2023-01-29T11:52:10;99078.53;;;1.64;70.72
24620;BME280;12763;55.802;37.404;2023-01-29T11:57:44;99073.06;;;1.72;70.92
24620;BME280;12763;55.802;37.404;2023-01-29T12:00:19;99074.53;;;1.99;70.68
24620;BME280;12763;55.802;37.404;2023-01-29T12:02:53;99069.00;;;1.68;71.33
24620;BME280;12763;55.802;37.404;2023-01-29T12:05:22;99074.44;;;1.76;71.73
24620;BME280;12763;55.802;37.404;2023-01-29T12:07:53;99069.66;;;1.78;71.33
24620;BME280;12763;55.802;37.404;2023-01-29T12:10:37;99069.81;;;1.85;71.48
24620;BME280;12763;55.802;37.404;2023-01-29T12:15:42;99078.06;;;1.36;73.88
24620;BME280;12763;55.802;37.404;2023-01-29T12:20:45;99060.13;;;1.74;72.85
24620;BME280;12763;55.802;37.404;2023-01-29T12:26:17;99059.88;;;2.00;72.10
24620;BME280;12763;55.802;37.404;2023-01-29T12:31:53;99060.69;;;1.61;73.06
24620;BME280;12763;55.802;37.404;2023-01-29T12:34:43;99066.94;;;1.78;73.71
24620;BME280;12763;55.802;37.404;2023-01-29T12:40:16;99069.22;;;1.50;74.69
24620;BME280;12763;55.802;37.404;2023-01-29T12:42:47;99065.75;;;1.72;73.99
24620;BME280;12763;55.802;37.404;2023-01-29T12:45:22;99069.69;;;1.70;74.64
24620;BME280;12763;55.802;37.404;2023-01-29T12:47:55;99071.03;;;1.66;74.88
24620;BME280;12763;55.802;37.404;2023-01-29T12:50:26;99081.28;;;1.40;76.53
24620;BME280;12763;55.802;37.404;2023-01-29T12:52:58;99071.44;;;1.23;77.71
24620;BME280;12763;55.802;37.404;2023-01-29T12:55:37;99059.56;;;1.15;78.69
24620;BME280;12763;55.802;37.404;2023-01-29T12:58:17;99072.47;;;1.46;77.69
24620;BME280;12763;55.802;37.404;2023-01-29T13:00:48;99066.53;;;1.34;76.95
24620;BME280;12763;55.802;37.404;2023-01-29T13:03:24;99061.53;;;1.62;76.71
24620;BME280;12763;55.802;37.404;2023-01-29T13:05:55;99060.34;;;1.64;76.06
24620;BME280;12763;55.802;37.404;2023-01-29T13:08:28;99059.00;;;1.44;76.98
24620;BME280;12763;55.802;37.404;2023-01-29T13:11:01;99053.72;;;1.59;76.86
24620;BME280;12763;55.802;37.404;2023-01-29T13:16:02;99044.75;;;1.42;77.75
24620;BME280;12763;55.802;37.404;2023-01-29T13:18:40;99048.81;;;1.38;78.51
24620;BME280;12763;55.802;37.404;2023-01-29T13:21:35;99037.09;;;1.54;77.84
24620;BME280;12763;55.802;37.404;2023-01-29T13:24:04;99031.38;;;1.79;76.60
24620;BME280;12763;55.802;37.404;2023-01-29T13:26:34;99025.88;;;1.57;76.83
24620;BME280;12763;55.802;37.404;2023-01-29T13:29:01;99035.25;;;1.46;77.06
24620;BME280;12763;55.802;37.404;2023-01-29T13:31:34;99032.94;;;1.74;76.70
24620;BME280;12763;55.802;37.404;2023-01-29T13:34:21;99032.94;;;1.74;76.92
24620;BME280;12763;55.802;37.404;2023-01-29T13:36:51;99027.88;;;1.71;76.93
24620;BME280;12763;55.802;37.404;2023-01-29T13:39:27;99032.97;;;1.58;77.15
24620;BME280;12763;55.802;37.404;2023-01-29T13:41:56;99036.72;;;1.65;76.96
24620;BME280;12763;55.802;37.404;2023-01-29T13:44:45;99023.81;;;1.59;77.17
24620;BME280;12763;55.802;37.404;2023-01-29T13:47:30;99029.59;;;1.56;78.01
24620;BME280;12763;55.802;37.404;2023-01-29T13:50:05;99023.50;;;1.54;78.03
24620;BME280;12763;55.802;37.404;2023-01-29T13:55:30;99017.00;;;1.55;78.34
24620;BME280;12763;55.802;37.404;2023-01-29T13:58:06;99023.34;;;1.39;79.31
24620;BME280;12763;55.802;37.404;2023-01-29T14:07:57;99003.69;;;1.76;78.21
24620;BME280;12763;55.802;37.404;2023-01-29T14:10:29;99004.41;;;1.70;78.29
24620;BME280;12763;55.802;37.404;2023-01-29T14:18:27;99006.88;;;1.41;80.12
24620;BME280;12763;55.802;37.404;2023-01-29T14:21:04;98999.66;;;1.64;80.45
24620;BME280;12763;55.802;37.404;2023-01-29T14:23:44;98999.38;;;1.51;80.39
24620;BME280;12763;55.802;37.404;2023-01-29T14:31:35;98997.53;;;1.43;81.11
24620;BME280;12763;55.802;37.404;2023-01-29T14:34:04;99002.09;;;1.43;80.98
24620;BME280;12763;55.802;37.404;2023-01-29T14:36:39;98998.31;;;1.60;80.86
24620;BME280;12763;55.802;37.404;2023-01-29T14:39:19;99003.66;;;1.37;81.73
24620;BME280;12763;55.802;37.404;2023-01-29T14:41:50;99003.78;;;1.44;81.67
24620;BME280;12763;55.802;37.404;2023-01-29T14:44:45;98999.41;;;1.35;82.75
24620;BME280;12763;55.802;37.404;2023-01-29T14:49:57;99007.25;;;1.13;83.21
24620;BME280;12763;55.802;37.404;2023-01-29T14:52:35;98987.97;;;1.47;82.65
24620;BME280;12763;55.802;37.404;2023-01-29T14:55:06;98992.78;;;1.29;83.86
24620;BME280;12763;55.802;37.404;2023-01-29T14:57:34;98983.72;;;1.53;82.45
24620;BME280;12763;55.802;37.404;2023-01-29T15:00:12;98984.69;;;1.13;85.73
24620;BME280;12763;55.802;37.404;2023-01-29T15:02:42;98983.22;;;1.41;85.45
24620;BME280;12763;55.802;37.404;2023-01-29T15:05:24;98982.41;;;1.33;86.23
24620;BME280;12763;55.802;37.404;2023-01-29T15:08:05;98981.44;;;1.17;87.49
24620;BME280;12763;55.802;37.404;2023-01-29T15:10:52;98990.69;;;1.47;86.39
24620;BME280;12763;55.802;37.404;2023-01-29T15:13:51;98992.91;;;1.44;86.14
24620;BME280;12763;55.802;37.404;2023-01-29T15:16:29;98991.09;;;1.28;87.73
24620;BME280;12763;55.802;37.404;2023-01-29T15:19:07;98997.00;;;1.48;87.03
24620;BME280;12763;55.802;37.404;2023-01-29T15:21:37;98993.66;;;1.13;88.35
24620;BME280;12763;55.802;37.404;2023-01-29T15:24:05;98986.81;;;1.34;88.16
24620;BME280;12763;55.802;37.404;2023-01-29T15:26:32;98988.91;;;1.15;89.50
24620;BME280;12763;55.802;37.404;2023-01-29T15:28:59;98996.53;;;1.20;89.95
24620;BME280;12763;55.802;37.404;2023-01-29T15:31:25;99005.59;;;0.96;91.04